createdAt,value
2022-08-18T00:00:15.265Z,9.60
2022-08-18T00:05:38.464Z,11.30
2022-08-18T00:10:42.059Z,10.70
2022-08-18T00:15:48.781Z,11.40
2022-08-18T00:20:50.792Z,11.40
2022-08-18T00:25:51.963Z,11.90
2022-08-18T00:30:54.012Z,11.50
2022-08-18T00:35:55.878Z,11.10
2022-08-18T00:40:57.220Z,9.60
2022-08-18T00:45:58.539Z,13.20
2022-08-18T00:51:07.019Z,11.40
2022-08-18T00:56:12.623Z,12.00
2022-08-18T01:01:16.009Z,12.00
2022-08-18T01:06:26.435Z,12.10
2022-08-18T01:11:27.764Z,11.20
2022-08-18T01:16:56.665Z,13.40
2022-08-18T01:22:06.545Z,14.10
2022-08-18T01:27:08.814Z,13.80
2022-08-18T01:32:13.705Z,12.60
2022-08-18T01:37:22.021Z,14.50
2022-08-18T01:42:23.166Z,11.10
2022-08-18T01:47:24.437Z,12.00
2022-08-18T01:52:27.911Z,12.50
2022-08-18T01:57:30.710Z,13.40
2022-08-18T02:02:33.071Z,13.30
2022-08-18T02:07:36.635Z,15.90
2022-08-18T02:12:40.237Z,14.30
2022-08-18T02:17:44.870Z,11.90
2022-08-18T02:22:47.572Z,10.90
2022-08-18T02:27:48.706Z,12.30
2022-08-18T02:32:50.130Z,11.00
2022-08-18T02:37:51.465Z,14.80
2022-08-18T02:42:55.817Z,12.20
2022-08-18T02:47:57.438Z,16.10
2022-08-18T02:53:01.480Z,15.40
2022-08-18T02:58:02.807Z,14.90
2022-08-18T03:03:04.640Z,15.50
2022-08-18T03:08:05.768Z,13.70
2022-08-18T03:13:06.825Z,12.40
2022-08-18T03:18:08.222Z,13.50
2022-08-18T03:23:10.377Z,12.10
2022-08-18T03:28:12.765Z,14.30
2022-08-18T03:33:13.971Z,15.20
2022-08-18T03:38:15.140Z,12.30
2022-08-18T03:43:50.338Z,12.30
2022-08-18T03:48:40.203Z,16.60
2022-08-18T03:53:41.721Z,13.10
2022-08-18T03:58:45.081Z,12.70
2022-08-18T04:03:50.910Z,12.50
2022-08-18T04:08:56.768Z,14.80
2022-08-18T04:13:58.461Z,18.60
2022-08-18T04:19:01.199Z,11.60
2022-08-18T04:24:04.450Z,14.80
2022-08-18T04:29:08.599Z,12.60
2022-08-18T04:34:10.523Z,11.30
2022-08-18T04:39:13.288Z,12.00
2022-08-18T04:44:16.760Z,11.90
2022-08-18T04:49:21.117Z,15.00
2022-08-18T04:54:24.362Z,11.50
2022-08-18T04:59:25.473Z,11.70
2022-08-18T05:04:28.416Z,12.10
2022-08-18T05:09:29.665Z,10.90
2022-08-18T05:14:31.365Z,12.50
2022-08-18T05:19:34.872Z,16.60
2022-08-18T05:24:37.748Z,15.20
2022-08-18T05:29:45.569Z,11.10
2022-08-18T05:34:49.400Z,10.60
2022-08-18T05:39:59.348Z,11.30
2022-08-18T05:45:05.903Z,9.00
2022-08-18T05:50:11.099Z,10.00
2022-08-18T05:55:36.099Z,12.20
2022-08-18T06:00:38.373Z,8.90
2022-08-18T06:06:04.730Z,10.60
2022-08-18T06:11:05.877Z,12.10
2022-08-18T06:16:40.109Z,11.40
2022-08-18T06:21:59.145Z,8.80
2022-08-18T06:27:11.131Z,9.30
2022-08-18T06:32:27.377Z,6.70
2022-08-18T06:37:34.670Z,8.80
2022-08-18T06:42:40.409Z,9.90
2022-08-18T06:47:45.682Z,8.70
2022-08-18T06:52:55.163Z,7.00
2022-08-18T06:57:59.663Z,8.90
2022-08-18T07:03:15.907Z,9.60
2022-08-18T07:08:29.804Z,7.70
2022-08-18T07:13:37.998Z,9.30
2022-08-18T07:18:39.253Z,7.40
2022-08-18T07:23:40.408Z,9.00
2022-08-18T07:28:45.212Z,10.00
2022-08-18T07:33:52.439Z,10.80
2022-08-18T07:38:59.985Z,9.40
2022-08-18T07:44:15.627Z,9.50
2022-08-18T07:49:22.461Z,6.50
2022-08-18T07:54:49.821Z,8.20
2022-08-18T08:00:26.789Z,8.70
2022-08-18T08:05:47.735Z,7.80
2022-08-18T08:11:26.723Z,7.30
2022-08-18T08:16:41.280Z,10.80
2022-08-18T08:22:04.659Z,9.30
2022-08-18T08:27:15.356Z,7.50
2022-08-18T08:32:39.748Z,6.40
2022-08-18T08:38:38.645Z,7.60
2022-08-18T08:43:34.066Z,7.10
2022-08-18T08:48:47.514Z,9.50
2022-08-18T08:53:54.605Z,7.60
2022-08-18T08:59:01.360Z,10.70
2022-08-18T09:04:29.346Z,5.80
2022-08-18T09:10:01.870Z,6.60
2022-08-18T09:15:14.064Z,5.60
2022-08-18T09:20:49.043Z,7.00
2022-08-18T09:25:54.482Z,5.70
2022-08-18T09:31:01.613Z,9.10
2022-08-18T09:36:25.724Z,13.60
2022-08-18T09:41:37.258Z,6.00
2022-08-18T09:46:47.306Z,6.20
2022-08-18T09:51:51.887Z,6.40
2022-08-18T09:57:16.716Z,8.20
2022-08-18T10:02:31.203Z,4.00
2022-08-18T10:07:43.212Z,8.00
2022-08-18T10:12:48.389Z,5.70
2022-08-18T10:17:55.765Z,4.60
2022-08-18T10:28:04.599Z,6.20
2022-08-18T10:33:18.229Z,5.10
2022-08-18T10:44:28.360Z,7.80
2022-08-18T10:49:32.446Z,5.90
2022-08-18T10:54:54.357Z,5.40
2022-08-18T11:00:07.021Z,8.00
2022-08-18T11:05:16.214Z,6.20
2022-08-18T11:10:58.062Z,12.70
2022-08-18T11:16:20.893Z,7.50
2022-08-18T11:21:43.915Z,7.00
2022-08-18T11:26:56.006Z,6.90
2022-08-18T11:32:34.962Z,6.10
2022-08-18T11:37:49.269Z,6.20
2022-08-18T11:42:59.133Z,6.50
2022-08-18T11:48:21.073Z,10.40
2022-08-18T11:53:32.406Z,6.90
2022-08-18T11:58:45.292Z,8.00
2022-08-18T12:03:48.646Z,4.50
2022-08-18T12:09:24.374Z,10.30
2022-08-18T12:15:00.566Z,4.70
2022-08-18T12:20:08.076Z,5.50
2022-08-18T12:25:16.842Z,6.80
2022-08-18T12:30:26.250Z,6.40
2022-08-18T12:35:27.524Z,5.30
2022-08-18T12:40:30.467Z,7.20
2022-08-18T12:45:32.426Z,5.20
2022-08-18T12:50:49.969Z,8.30
2022-08-18T12:55:57.539Z,4.80
2022-08-18T13:00:58.620Z,8.00
2022-08-18T13:05:59.721Z,5.20
2022-08-18T13:11:10.445Z,6.20
2022-08-18T13:16:30.718Z,6.10
2022-08-18T13:21:41.627Z,7.90
2022-08-18T13:26:46.301Z,6.80
2022-08-18T13:31:55.257Z,9.60
2022-08-18T13:36:58.731Z,7.00
2022-08-18T13:42:00.955Z,6.80
2022-08-18T13:47:22.358Z,5.80
2022-08-18T13:52:34.198Z,5.70
2022-08-18T13:57:38.317Z,6.00
2022-08-18T14:02:39.620Z,5.60
2022-08-18T14:07:42.740Z,5.90
2022-08-18T14:12:44.928Z,6.70
2022-08-18T14:17:48.606Z,6.60
2022-08-18T14:23:11.569Z,6.30
2022-08-18T14:28:13.308Z,11.10
2022-08-18T14:38:21.037Z,7.90
2022-08-18T14:43:24.888Z,5.30
2022-08-18T14:48:26.738Z,8.40
2022-08-18T14:53:31.887Z,6.40
2022-08-18T14:58:36.439Z,4.90
2022-08-18T15:03:40.270Z,7.00
2022-08-18T15:08:43.826Z,5.50
2022-08-18T15:13:48.110Z,6.50
2022-08-18T15:18:49.600Z,4.90
2022-08-18T15:24:20.035Z,7.00
2022-08-18T15:29:28.079Z,11.20
2022-08-18T15:34:30.473Z,8.40
2022-08-18T15:39:32.011Z,7.80
2022-08-18T15:44:33.919Z,7.20
2022-08-18T15:49:35.507Z,8.50
2022-08-18T15:54:36.615Z,5.50
2022-08-18T15:59:39.874Z,6.90
2022-08-18T16:04:44.996Z,6.70
2022-08-18T16:09:46.308Z,8.50
2022-08-18T16:14:49.971Z,6.00
2022-08-18T16:19:51.224Z,5.20
2022-08-18T16:24:55.069Z,5.70
2022-08-18T16:29:56.577Z,7.70
2022-08-18T16:34:58.340Z,8.80
2022-08-18T16:40:00.400Z,6.30
2022-08-18T16:45:04.313Z,5.40
2022-08-18T16:50:08.594Z,5.80
2022-08-18T16:55:11.001Z,7.40
2022-08-18T17:00:31.754Z,6.90
2022-08-18T17:05:33.806Z,5.90
2022-08-18T17:10:37.106Z,7.80
2022-08-18T17:15:38.368Z,6.80
2022-08-18T17:20:39.523Z,6.30
2022-08-18T17:25:41.203Z,9.00
2022-08-18T17:30:50.983Z,5.10
2022-08-18T17:35:55.527Z,6.60
2022-08-18T17:40:57.547Z,8.80
2022-08-18T17:46:26.651Z,7.30
2022-08-18T17:51:42.522Z,8.30
2022-08-18T17:56:52.062Z,14.00
2022-08-18T18:02:29.387Z,10.00
2022-08-18T18:07:54.324Z,8.70
2022-08-18T18:13:22.013Z,7.40
2022-08-18T18:18:44.327Z,8.90
2022-08-18T18:23:52.032Z,10.50
2022-08-18T18:29:25.686Z,9.10
2022-08-18T18:34:32.040Z,9.40
2022-08-18T18:39:35.415Z,13.40
2022-08-18T18:44:36.595Z,7.60
2022-08-18T18:50:00.996Z,7.80
2022-08-18T18:55:05.128Z,8.40
2022-08-18T19:00:18.257Z,9.40
2022-08-18T19:05:42.651Z,7.90
2022-08-18T19:10:56.125Z,8.80
2022-08-18T19:16:04.716Z,9.60
2022-08-18T19:22:04.523Z,9.60
2022-08-18T19:26:51.903Z,9.80
2022-08-18T19:32:16.762Z,9.20
2022-08-18T19:37:44.780Z,10.50
2022-08-18T19:42:53.850Z,8.20
2022-08-18T19:47:58.195Z,10.90
2022-08-18T19:53:26.669Z,11.30
2022-08-18T19:58:36.683Z,7.90
2022-08-18T20:04:15.715Z,8.70
2022-08-18T20:09:44.796Z,7.70
2022-08-18T20:15:01.581Z,15.20
2022-08-18T20:20:12.031Z,10.60
2022-08-18T20:25:16.927Z,9.20
2022-08-18T20:30:28.761Z,11.30
2022-08-18T20:35:32.093Z,9.40
2022-08-18T20:40:42.432Z,8.10
2022-08-18T20:45:46.132Z,8.80
2022-08-18T20:51:02.474Z,11.70
2022-08-18T20:56:32.093Z,12.10
2022-08-18T21:01:39.429Z,13.10
2022-08-18T21:06:43.759Z,12.50
2022-08-18T21:11:46.711Z,11.30
2022-08-18T21:16:47.859Z,12.00
2022-08-18T21:21:52.798Z,9.00
2022-08-18T21:26:57.351Z,9.60
2022-08-18T21:32:07.745Z,8.30
2022-08-18T21:37:11.507Z,8.80
2022-08-18T21:42:51.706Z,11.90
2022-08-18T21:47:56.141Z,8.60
2022-08-18T21:53:04.569Z,8.50
2022-08-18T21:58:15.772Z,10.70
2022-08-18T22:03:23.977Z,7.90
2022-08-18T22:08:27.864Z,9.00
2022-08-18T22:13:47.597Z,14.40
2022-08-18T22:18:49.126Z,8.30
2022-08-18T22:24:10.434Z,10.90
2022-08-18T22:29:45.443Z,13.40
2022-08-18T22:34:52.556Z,10.10
2022-08-18T22:39:56.792Z,12.40
2022-08-18T22:45:03.346Z,10.80
2022-08-18T22:50:07.165Z,11.60
2022-08-18T22:55:11.489Z,10.70
2022-08-18T23:00:16.450Z,14.70
2022-08-18T23:05:17.705Z,14.20
2022-08-18T23:10:19.444Z,15.60
2022-08-18T23:15:20.737Z,14.60
2022-08-18T23:20:22.309Z,11.20
2022-08-18T23:25:28.063Z,15.20
2022-08-18T23:30:30.643Z,9.80
2022-08-18T23:35:33.655Z,10.60
2022-08-18T23:40:43.198Z,10.70
2022-08-18T23:45:47.902Z,11.40
2022-08-18T23:50:49.702Z,11.70
2022-08-18T23:55:50.787Z,11.10
